LFCK/DCM METAR and TAF weather

Enter ICAO airport designator
Station Type Date Time Source
LFCK METAR 2019/04/25 10:00 UTC NOAA

LFCK 251000Z AUTO VRB03KT 9999 FEW027 OVC033 14/08 Q1009 NOSIG


Station Type Date Time Source
LFCK Decoded METAR 2019/04/25 10:00 UTC NOAA

Station name not available
Apr 25, 2019 - 06:00 AM EDT / 2019.04.25 1000 UTC
Wind: Variable at 3 MPH (3 KT):0
Visibility: greater than 7 mile(s):0
Sky conditions: overcast
Temperature: 57 F (14 C)
Dew Point: 46 F (8 C)
Relative Humidity: 67%
Pressure (altimeter): 29.80 in. Hg (1009 hPa)
ob: LFCK 251000Z AUTO VRB03KT 9999 FEW027 OVC033 14/08 Q1009 NOSIG
cycle: 10

Station Type Date Time Source
LFCK TAF UTC NOAA

Error!

Example: see airport list